createdAt,value
2018-06-21T00:00:55.371Z,1.40
2018-06-21T00:01:55.374Z,1.50
2018-06-21T00:02:55.357Z,1.60
2018-06-21T00:03:55.342Z,1.40
2018-06-21T00:04:55.331Z,1.40
2018-06-21T00:05:55.308Z,1.40
2018-06-21T00:06:55.337Z,1.50
2018-06-21T00:07:55.303Z,1.50
2018-06-21T00:08:55.294Z,1.50
2018-06-21T00:09:55.286Z,1.50
2018-06-21T00:10:55.255Z,1.50
2018-06-21T00:11:55.272Z,1.40
2018-06-21T00:12:55.234Z,1.40
2018-06-21T00:13:55.219Z,1.40
2018-06-21T00:14:55.216Z,1.50
2018-06-21T00:15:55.203Z,1.30
2018-06-21T00:16:55.190Z,1.30
2018-06-21T00:17:55.202Z,1.60
2018-06-21T00:18:55.238Z,1.40
2018-06-21T00:19:55.157Z,1.50
2018-06-21T00:20:55.148Z,1.30
2018-06-21T00:21:55.140Z,1.40
2018-06-21T00:22:55.142Z,1.40
2018-06-21T00:23:55.112Z,1.40
2018-06-21T00:24:55.100Z,1.60
2018-06-21T00:25:55.088Z,1.40
2018-06-21T00:26:55.087Z,1.80
2018-06-21T00:27:55.111Z,1.40
2018-06-21T00:28:55.097Z,1.40
2018-06-21T00:29:55.049Z,1.70
2018-06-21T00:30:55.054Z,1.50
2018-06-21T00:31:55.024Z,1.40
2018-06-21T00:32:55.012Z,1.60
2018-06-21T00:33:55.000Z,1.40
2018-06-21T00:34:54.996Z,1.30
2018-06-21T00:35:55.034Z,1.40
2018-06-21T00:36:54.971Z,1.40
2018-06-21T00:37:55.086Z,1.40
2018-06-21T00:38:54.947Z,1.40
2018-06-21T00:39:55.015Z,1.40
2018-06-21T00:40:54.923Z,1.50
2018-06-21T00:41:54.962Z,1.30
2018-06-21T00:42:55.045Z,1.40
2018-06-21T00:43:54.887Z,1.50
2018-06-21T00:44:54.891Z,1.40
2018-06-21T00:45:54.868Z,1.30
2018-06-21T00:46:54.863Z,1.30
2018-06-21T00:47:54.870Z,1.50
2018-06-21T00:48:54.834Z,1.40
2018-06-21T00:49:54.823Z,1.70
2018-06-21T00:50:54.804Z,1.30
2018-06-21T00:51:54.795Z,1.40
2018-06-21T00:52:54.787Z,1.40
2018-06-21T00:53:54.794Z,1.40
2018-06-21T00:54:54.759Z,1.40
2018-06-21T00:55:54.772Z,1.50
2018-06-21T00:56:54.737Z,1.30
2018-06-21T00:57:54.725Z,1.50
2018-06-21T00:58:54.739Z,1.40
2018-06-21T00:59:54.714Z,1.40
2018-06-21T01:00:54.698Z,1.40
2018-06-21T01:01:54.685Z,1.50
2018-06-21T01:02:54.671Z,1.50
2018-06-21T01:03:54.661Z,1.40
2018-06-21T01:04:54.651Z,1.50
2018-06-21T01:05:54.635Z,1.30
2018-06-21T01:06:54.631Z,1.70
2018-06-21T01:07:54.613Z,1.40
2018-06-21T01:08:54.940Z,1.40
2018-06-21T01:09:54.599Z,1.50
2018-06-21T01:10:54.589Z,1.40
2018-06-21T01:11:54.573Z,1.40
2018-06-21T01:12:54.557Z,1.40
2018-06-21T01:13:54.550Z,1.40
2018-06-21T01:14:54.534Z,1.30
2018-06-21T01:15:54.523Z,1.40
2018-06-21T01:16:54.511Z,1.40
2018-06-21T01:17:54.503Z,1.50
2018-06-21T01:18:54.509Z,1.40
2018-06-21T01:19:54.509Z,1.30
2018-06-21T01:20:54.471Z,1.30
2018-06-21T01:21:54.464Z,1.50
2018-06-21T01:22:54.439Z,1.40
2018-06-21T01:23:54.477Z,1.40
2018-06-21T01:24:54.423Z,1.40
2018-06-21T01:25:54.414Z,1.90
2018-06-21T01:26:54.463Z,1.40
2018-06-21T01:27:54.385Z,1.30
2018-06-21T01:28:54.378Z,1.30
2018-06-21T01:29:54.387Z,1.30
2018-06-21T01:30:54.360Z,1.50
2018-06-21T01:31:54.344Z,1.30
2018-06-21T01:32:54.336Z,1.40
2018-06-21T01:33:54.324Z,1.50
2018-06-21T01:34:54.330Z,1.50
2018-06-21T01:35:54.297Z,1.30
2018-06-21T01:36:54.283Z,1.60
2018-06-21T01:37:54.272Z,1.50
2018-06-21T01:38:54.272Z,1.40
2018-06-21T01:39:54.291Z,1.30
2018-06-21T01:40:54.258Z,1.40
2018-06-21T01:41:54.252Z,1.30
2018-06-21T01:42:54.247Z,1.20
2018-06-21T01:43:54.237Z,1.30
2018-06-21T01:44:54.222Z,1.20
2018-06-21T01:45:54.204Z,1.40
2018-06-21T01:46:54.193Z,1.40
2018-06-21T01:47:54.176Z,1.30
2018-06-21T01:48:54.161Z,1.30
2018-06-21T01:49:54.135Z,1.40
2018-06-21T01:50:54.131Z,1.40
2018-06-21T01:51:54.124Z,1.30
2018-06-21T01:52:54.105Z,1.50
2018-06-21T01:53:54.104Z,1.30
2018-06-21T01:54:54.084Z,1.40
2018-06-21T01:55:54.099Z,1.20
2018-06-21T01:56:54.058Z,1.40
2018-06-21T01:57:54.051Z,1.30
2018-06-21T01:58:54.034Z,1.40
2018-06-21T01:59:54.031Z,1.40
2018-06-21T02:00:54.033Z,1.40
2018-06-21T02:01:53.997Z,1.40
2018-06-21T02:02:53.997Z,1.40
2018-06-21T02:03:53.983Z,1.20
2018-06-21T02:04:53.965Z,1.30
2018-06-21T02:05:53.975Z,1.30
2018-06-21T02:06:53.949Z,1.40
2018-06-21T02:07:53.937Z,1.40
2018-06-21T02:08:53.922Z,1.30
2018-06-21T02:09:53.913Z,1.40
2018-06-21T02:10:53.915Z,1.30
2018-06-21T02:11:53.886Z,1.30
2018-06-21T02:12:53.876Z,1.40
2018-06-21T02:13:53.867Z,1.40
2018-06-21T02:14:53.849Z,1.30
2018-06-21T02:15:53.868Z,1.30
2018-06-21T02:16:53.831Z,1.30
2018-06-21T02:17:53.818Z,1.30
2018-06-21T02:18:53.810Z,1.40
2018-06-21T02:19:53.800Z,1.40
2018-06-21T02:20:53.790Z,1.50
2018-06-21T02:21:53.782Z,1.30
2018-06-21T02:22:53.759Z,1.40
2018-06-21T02:23:53.754Z,1.30
2018-06-21T02:24:53.739Z,1.60
2018-06-21T02:25:53.724Z,1.20
2018-06-21T02:26:53.723Z,1.20
2018-06-21T02:27:53.707Z,1.40
2018-06-21T02:28:53.693Z,1.30
2018-06-21T02:29:53.680Z,1.20
2018-06-21T02:30:53.674Z,1.30
2018-06-21T02:31:53.699Z,1.30
2018-06-21T02:32:53.655Z,1.30
2018-06-21T02:33:53.640Z,1.20
2018-06-21T02:34:53.629Z,1.20
2018-06-21T02:35:53.617Z,1.20
2018-06-21T02:36:53.629Z,1.50
2018-06-21T02:37:53.592Z,1.20
2018-06-21T02:38:53.594Z,1.40
2018-06-21T02:39:53.573Z,1.40
2018-06-21T02:40:53.562Z,1.40
2018-06-21T02:41:53.555Z,1.30
2018-06-21T02:42:53.536Z,1.30
2018-06-21T02:43:53.525Z,1.30
2018-06-21T02:44:53.516Z,1.50
2018-06-21T02:45:53.507Z,1.30
2018-06-21T02:46:53.486Z,1.40
2018-06-21T02:47:53.486Z,1.30
2018-06-21T02:48:53.468Z,1.60
2018-06-21T02:49:53.455Z,1.30
2018-06-21T02:50:53.501Z,1.30
2018-06-21T02:51:53.436Z,1.30
2018-06-21T02:52:53.429Z,1.30
2018-06-21T02:53:53.416Z,1.30
2018-06-21T02:54:53.398Z,1.40
2018-06-21T02:55:53.391Z,1.30
2018-06-21T02:56:53.377Z,1.30
2018-06-21T02:57:53.395Z,1.40
2018-06-21T02:58:53.361Z,1.40
2018-06-21T02:59:53.393Z,1.20
2018-06-21T03:00:53.337Z,1.20
2018-06-21T03:01:53.387Z,1.20
2018-06-21T03:02:53.345Z,1.40
2018-06-21T03:03:53.362Z,1.40
2018-06-21T03:04:53.291Z,1.30
2018-06-21T03:05:53.331Z,1.40
2018-06-21T03:06:53.265Z,1.40
2018-06-21T03:07:53.263Z,1.20
2018-06-21T03:08:53.250Z,1.30
2018-06-21T03:09:53.234Z,1.40
2018-06-21T03:10:53.228Z,1.50
2018-06-21T03:11:53.216Z,1.30
2018-06-21T03:12:53.202Z,1.40
2018-06-21T03:13:53.196Z,1.40
2018-06-21T03:14:53.177Z,1.30
2018-06-21T03:15:53.252Z,1.30
2018-06-21T03:16:53.236Z,1.40
2018-06-21T03:17:53.239Z,1.30
2018-06-21T03:18:53.157Z,1.40
2018-06-21T03:19:53.123Z,1.40
2018-06-21T03:20:53.112Z,1.30
2018-06-21T03:21:53.098Z,1.30
2018-06-21T03:22:53.163Z,1.40
2018-06-21T03:23:53.079Z,1.30
2018-06-21T03:24:53.082Z,1.50
2018-06-21T03:25:53.116Z,1.20
2018-06-21T03:26:53.117Z,1.30
2018-06-21T03:27:53.125Z,1.40
2018-06-21T03:28:53.022Z,1.40
2018-06-21T03:29:53.012Z,1.30
2018-06-21T03:30:53.006Z,1.30
2018-06-21T03:31:52.996Z,1.50
2018-06-21T03:32:52.974Z,1.30
2018-06-21T03:33:52.960Z,1.40
2018-06-21T03:34:52.984Z,1.50
2018-06-21T03:35:52.949Z,1.30
2018-06-21T03:36:52.937Z,1.40
2018-06-21T03:37:52.928Z,1.30
2018-06-21T03:38:52.905Z,1.20
2018-06-21T03:39:52.898Z,1.30
2018-06-21T03:40:52.887Z,1.30
2018-06-21T03:41:52.870Z,1.30
2018-06-21T03:42:52.865Z,1.10
2018-06-21T03:43:52.856Z,1.40
2018-06-21T03:44:52.843Z,1.40
2018-06-21T03:45:52.835Z,1.40
2018-06-21T03:46:52.819Z,1.50
2018-06-21T03:47:52.807Z,1.40
2018-06-21T03:48:52.796Z,1.30
2018-06-21T03:49:52.791Z,1.30
2018-06-21T03:50:52.797Z,1.40
2018-06-21T03:51:52.761Z,1.20
2018-06-21T03:52:52.752Z,1.40
2018-06-21T03:53:52.736Z,1.40
2018-06-21T03:54:52.733Z,1.50
2018-06-21T03:55:52.720Z,1.40
2018-06-21T03:56:52.710Z,1.30
2018-06-21T03:57:52.710Z,1.40
2018-06-21T03:58:52.683Z,1.20
2018-06-21T03:59:52.674Z,1.40
2018-06-21T04:00:52.663Z,1.30
2018-06-21T04:01:52.653Z,1.40
2018-06-21T04:02:52.645Z,1.30
2018-06-21T04:03:52.631Z,1.40
2018-06-21T04:04:52.618Z,1.40
2018-06-21T04:05:52.605Z,1.30
2018-06-21T04:06:52.604Z,1.20
2018-06-21T04:07:52.587Z,1.20
2018-06-21T04:08:52.579Z,1.50
2018-06-21T04:09:52.566Z,1.30
2018-06-21T04:10:52.549Z,1.30
2018-06-21T04:11:52.559Z,1.30
2018-06-21T04:12:52.527Z,1.50
2018-06-21T04:13:52.518Z,1.50
2018-06-21T04:14:52.509Z,1.40
2018-06-21T04:15:52.496Z,1.50
2018-06-21T04:16:52.502Z,1.40
2018-06-21T04:17:52.476Z,1.40
2018-06-21T04:18:52.456Z,1.40
2018-06-21T04:19:52.450Z,1.40
2018-06-21T04:20:52.438Z,1.40
2018-06-21T04:21:52.449Z,1.30
2018-06-21T04:22:52.413Z,1.30
2018-06-21T04:23:52.401Z,1.40
2018-06-21T04:24:52.391Z,1.20
2018-06-21T04:25:52.377Z,1.30
2018-06-21T04:26:52.393Z,1.40
2018-06-21T04:27:52.365Z,1.30
2018-06-21T04:28:52.348Z,1.20
2018-06-21T04:29:52.344Z,1.50
2018-06-21T04:30:52.320Z,1.40
2018-06-21T04:31:52.344Z,1.40
2018-06-21T04:32:52.301Z,1.40
2018-06-21T04:33:52.285Z,1.40
2018-06-21T04:34:52.281Z,1.40
2018-06-21T04:35:52.271Z,1.50
2018-06-21T04:36:52.256Z,1.40
2018-06-21T04:37:52.249Z,1.20
2018-06-21T04:38:52.239Z,1.40
2018-06-21T04:39:52.223Z,1.50
2018-06-21T04:40:52.210Z,1.40
2018-06-21T04:41:52.201Z,1.40
2018-06-21T04:42:52.187Z,1.40
2018-06-21T04:43:52.173Z,1.40
2018-06-21T04:44:52.162Z,1.30
2018-06-21T04:45:52.215Z,1.50
2018-06-21T04:46:52.144Z,1.50
2018-06-21T04:47:52.133Z,1.40
2018-06-21T04:48:52.119Z,1.30
2018-06-21T04:49:52.109Z,1.30
2018-06-21T04:50:52.092Z,1.40
2018-06-21T04:51:52.082Z,1.40
2018-06-21T04:52:52.093Z,1.30
2018-06-21T04:53:52.062Z,1.40
2018-06-21T04:54:52.047Z,1.50
2018-06-21T04:55:52.037Z,1.20
2018-06-21T04:56:52.024Z,1.40
2018-06-21T04:57:52.032Z,1.40
2018-06-21T04:58:52.006Z,1.50
2018-06-21T04:59:51.993Z,1.40
2018-06-21T05:00:51.982Z,1.40
2018-06-21T05:01:51.972Z,1.30
2018-06-21T05:02:51.982Z,1.40
2018-06-21T05:03:51.944Z,1.40
2018-06-21T05:04:51.933Z,1.60
2018-06-21T05:05:51.922Z,1.50
2018-06-21T05:06:51.915Z,1.40
2018-06-21T05:07:51.901Z,1.40
2018-06-21T05:08:51.889Z,1.30
2018-06-21T05:09:51.886Z,1.30
2018-06-21T05:10:51.870Z,1.20
2018-06-21T05:11:51.856Z,1.40
2018-06-21T05:12:51.847Z,1.50
2018-06-21T05:13:51.863Z,1.30
2018-06-21T05:14:51.821Z,1.30
2018-06-21T05:15:51.811Z,1.40
2018-06-21T05:16:51.800Z,1.30
2018-06-21T05:17:51.785Z,1.30
2018-06-21T05:18:51.783Z,1.20
2018-06-21T05:19:51.769Z,1.40
2018-06-21T05:20:51.757Z,1.30
2018-06-21T05:21:51.749Z,1.30
2018-06-21T05:22:51.732Z,1.50
2018-06-21T05:23:51.723Z,1.30
2018-06-21T05:24:51.718Z,1.60
2018-06-21T05:25:51.703Z,1.30
2018-06-21T05:26:51.672Z,1.40
2018-06-21T05:27:51.663Z,1.30
2018-06-21T05:28:51.670Z,1.40
2018-06-21T05:29:51.639Z,1.50
2018-06-21T05:30:51.635Z,1.40
2018-06-21T05:31:51.621Z,1.20
2018-06-21T05:32:51.610Z,1.30
2018-06-21T05:33:51.637Z,1.40
2018-06-21T05:34:51.583Z,1.30
2018-06-21T05:35:51.576Z,1.30
2018-06-21T05:36:51.562Z,1.40
2018-06-21T05:37:51.551Z,1.20
2018-06-21T05:38:51.545Z,1.40
2018-06-21T05:39:51.549Z,1.50
2018-06-21T05:40:51.522Z,1.30
2018-06-21T05:41:51.504Z,1.40
2018-06-21T05:42:51.498Z,1.40
2018-06-21T05:43:51.485Z,1.30
2018-06-21T05:44:51.505Z,1.30
2018-06-21T05:45:51.467Z,1.40
2018-06-21T05:46:51.451Z,1.40
2018-06-21T05:47:51.444Z,1.50
2018-06-21T05:48:51.435Z,1.50
2018-06-21T05:49:51.420Z,1.40
2018-06-21T05:50:51.435Z,1.50
2018-06-21T05:51:51.402Z,1.50
2018-06-21T05:52:51.393Z,1.40
2018-06-21T05:53:51.403Z,1.40
2018-06-21T05:54:51.364Z,1.40
2018-06-21T05:55:51.375Z,1.60
2018-06-21T05:56:51.348Z,1.40
2018-06-21T05:57:51.338Z,1.60
2018-06-21T05:58:51.321Z,1.70
2018-06-21T05:59:51.313Z,1.50
2018-06-21T06:00:51.317Z,1.40
2018-06-21T06:01:51.312Z,1.50
2018-06-21T06:02:51.282Z,1.50
2018-06-21T06:03:51.271Z,1.60
2018-06-21T06:04:51.260Z,1.50
2018-06-21T06:05:51.278Z,1.50
2018-06-21T06:06:51.233Z,1.60
2018-06-21T06:07:51.225Z,1.60
2018-06-21T06:08:51.214Z,2.10
2018-06-21T06:09:51.205Z,1.80
2018-06-21T06:10:51.195Z,1.70
2018-06-21T06:11:51.202Z,1.70
2018-06-21T06:12:51.169Z,1.60
2018-06-21T06:13:51.155Z,1.70
2018-06-21T06:14:51.159Z,1.80
2018-06-21T06:15:51.138Z,1.80
2018-06-21T06:16:51.172Z,1.90
2018-06-21T06:17:51.116Z,2.20
2018-06-21T06:18:51.098Z,1.50
2018-06-21T06:19:51.091Z,1.60
2018-06-21T06:20:51.081Z,1.90
2018-06-21T06:21:51.071Z,1.60
2018-06-21T06:22:51.079Z,1.70
2018-06-21T06:23:51.054Z,1.80
2018-06-21T06:24:51.036Z,1.70
2018-06-21T06:25:51.025Z,1.80
2018-06-21T06:26:51.010Z,1.70
2018-06-21T06:27:51.024Z,1.80
2018-06-21T06:28:50.992Z,1.70
2018-06-21T06:29:50.979Z,1.70
2018-06-21T06:30:50.966Z,2.00
2018-06-21T06:31:50.950Z,1.80
2018-06-21T06:32:50.943Z,1.60
2018-06-21T06:33:50.949Z,1.80
2018-06-21T06:34:50.923Z,1.80
2018-06-21T06:35:50.914Z,1.80
2018-06-21T06:36:50.902Z,1.70
2018-06-21T06:37:50.892Z,1.70
2018-06-21T06:38:50.908Z,1.80
2018-06-21T06:39:50.864Z,1.90
2018-06-21T06:40:50.852Z,1.80
2018-06-21T06:41:50.844Z,1.70
2018-06-21T06:42:50.876Z,1.80
2018-06-21T06:43:50.828Z,2.30
2018-06-21T06:44:50.826Z,1.90
2018-06-21T06:45:50.798Z,2.10
2018-06-21T06:46:50.790Z,1.90
2018-06-21T06:47:50.779Z,1.80
2018-06-21T06:48:50.769Z,1.90
2018-06-21T06:49:50.776Z,2.00
2018-06-21T06:50:50.744Z,1.90
2018-06-21T06:51:50.729Z,1.80
2018-06-21T06:52:50.716Z,1.80
2018-06-21T06:53:50.708Z,1.80
2018-06-21T06:54:50.782Z,2.10
2018-06-21T06:55:50.691Z,1.90
2018-06-21T06:56:50.684Z,1.80
2018-06-21T06:57:50.662Z,1.90
2018-06-21T06:58:50.652Z,2.10
2018-06-21T06:59:50.655Z,1.90
2018-06-21T07:00:50.634Z,1.70
2018-06-21T07:01:50.619Z,1.90
2018-06-21T07:02:50.606Z,1.90
2018-06-21T07:03:50.590Z,2.00
2018-06-21T07:04:50.599Z,2.00
2018-06-21T07:05:50.570Z,1.90
2018-06-21T07:06:50.561Z,1.80
2018-06-21T07:07:50.552Z,2.10
2018-06-21T07:08:50.539Z,1.90
2018-06-21T07:09:50.548Z,1.90
2018-06-21T07:10:50.512Z,2.00
2018-06-21T07:11:50.498Z,2.30
2018-06-21T07:12:50.487Z,2.20
2018-06-21T07:13:50.482Z,2.00
2018-06-21T07:14:50.496Z,2.10
2018-06-21T07:15:50.461Z,2.20
2018-06-21T07:16:50.443Z,2.10
2018-06-21T07:17:50.435Z,2.40
2018-06-21T07:18:50.425Z,2.30
2018-06-21T07:19:50.413Z,2.20
2018-06-21T07:20:50.422Z,2.20
2018-06-21T07:21:50.393Z,2.60
2018-06-21T07:22:50.378Z,2.30
2018-06-21T07:23:50.363Z,2.40
2018-06-21T07:24:50.354Z,2.50
2018-06-21T07:25:50.363Z,2.60
2018-06-21T07:26:50.336Z,2.40
2018-06-21T07:27:50.326Z,2.30
2018-06-21T07:28:50.317Z,4.00
2018-06-21T07:29:50.328Z,2.90
2018-06-21T07:30:50.317Z,3.90
2018-06-21T07:31:50.274Z,4.40
2018-06-21T07:32:50.269Z,4.30
2018-06-21T07:33:50.255Z,4.20
2018-06-21T07:34:50.247Z,3.90
2018-06-21T07:35:50.228Z,4.50
2018-06-21T07:36:50.235Z,3.00
2018-06-21T07:37:50.208Z,2.50
2018-06-21T07:38:50.246Z,2.80
2018-06-21T07:39:50.194Z,3.10
2018-06-21T07:40:50.179Z,3.00
2018-06-21T07:41:50.184Z,3.40
2018-06-21T07:42:50.153Z,3.30
2018-06-21T07:43:50.150Z,3.50
2018-06-21T07:44:50.128Z,3.70
2018-06-21T07:45:50.121Z,3.80
2018-06-21T07:46:50.160Z,3.20
2018-06-21T07:47:50.101Z,3.00
2018-06-21T07:48:50.083Z,3.00
2018-06-21T07:49:50.074Z,3.40
2018-06-21T07:50:50.066Z,4.80
2018-06-21T07:51:50.076Z,2.60
2018-06-21T07:52:50.045Z,3.80
2018-06-21T07:53:50.046Z,4.00
2018-06-21T07:54:50.019Z,3.90
2018-06-21T07:55:50.008Z,3.50
2018-06-21T07:56:50.014Z,4.20
2018-06-21T07:57:49.986Z,4.30
2018-06-21T07:58:49.979Z,3.90
2018-06-21T07:59:49.971Z,5.00
2018-06-21T08:00:49.959Z,3.40
2018-06-21T08:01:49.968Z,3.20
2018-06-21T08:02:49.933Z,3.30
2018-06-21T08:03:49.921Z,3.90
2018-06-21T08:04:49.926Z,5.30
2018-06-21T08:05:49.905Z,3.80
2018-06-21T08:06:49.918Z,4.10
2018-06-21T08:07:49.880Z,3.10
2018-06-21T08:08:49.865Z,3.10
2018-06-21T08:09:49.855Z,4.60
2018-06-21T08:10:49.848Z,3.20
2018-06-21T08:11:49.845Z,4.50
2018-06-21T08:12:49.881Z,4.00
2018-06-21T08:13:49.813Z,3.80
2018-06-21T08:14:49.798Z,5.20
2018-06-21T08:15:49.791Z,4.70
2018-06-21T08:16:49.775Z,3.80
2018-06-21T08:17:49.787Z,4.50
2018-06-21T08:18:49.765Z,4.20
2018-06-21T08:19:49.767Z,3.40
2018-06-21T08:20:49.738Z,4.50
2018-06-21T08:21:49.721Z,3.50
2018-06-21T08:22:49.733Z,3.30
2018-06-21T08:23:49.702Z,4.40
2018-06-21T08:24:49.693Z,4.30
2018-06-21T08:25:49.678Z,3.60
2018-06-21T08:26:49.691Z,3.50
2018-06-21T08:27:49.683Z,4.70
2018-06-21T08:28:49.642Z,3.50
2018-06-21T08:29:49.632Z,3.80
2018-06-21T08:30:49.636Z,5.60
2018-06-21T08:31:49.614Z,4.50
2018-06-21T08:32:49.631Z,3.80
2018-06-21T08:33:49.592Z,4.50
2018-06-21T08:34:49.581Z,3.80
2018-06-21T08:35:49.563Z,4.30
2018-06-21T08:36:49.561Z,4.70
2018-06-21T08:37:49.548Z,4.60
2018-06-21T08:38:49.561Z,4.70
2018-06-21T08:39:49.526Z,4.30
2018-06-21T08:40:49.512Z,4.60
2018-06-21T08:41:49.501Z,4.20
2018-06-21T08:42:49.492Z,4.60
2018-06-21T08:43:49.522Z,4.20
2018-06-21T08:44:49.490Z,4.90
2018-06-21T08:45:49.524Z,4.10
2018-06-21T08:46:49.446Z,3.60
2018-06-21T08:47:49.434Z,5.50
2018-06-21T08:48:49.440Z,4.60
2018-06-21T08:49:49.411Z,5.60
2018-06-21T08:50:49.401Z,4.60
2018-06-21T08:51:49.393Z,4.00
2018-06-21T08:52:49.379Z,4.00
2018-06-21T08:53:49.386Z,4.60
2018-06-21T08:54:49.357Z,4.70
2018-06-21T08:55:49.347Z,4.30
2018-06-21T08:56:49.337Z,3.80
2018-06-21T08:57:49.322Z,4.00
2018-06-21T08:58:49.329Z,5.00
2018-06-21T08:59:49.308Z,3.70
2018-06-21T09:00:49.288Z,3.80
2018-06-21T09:01:49.279Z,5.30
2018-06-21T09:02:49.270Z,4.00
2018-06-21T09:03:49.341Z,3.50
2018-06-21T09:04:49.249Z,3.40
2018-06-21T09:05:49.235Z,4.50
2018-06-21T09:06:49.223Z,4.40
2018-06-21T09:07:49.207Z,3.70
2018-06-21T09:08:49.230Z,4.00
2018-06-21T09:09:49.189Z,3.60
2018-06-21T09:10:49.179Z,4.00
2018-06-21T09:11:49.171Z,6.40
2018-06-21T09:12:49.152Z,5.80
2018-06-21T09:13:49.145Z,6.80
2018-06-21T09:14:49.153Z,4.70
2018-06-21T09:15:49.236Z,5.20
2018-06-21T09:16:49.117Z,4.00
2018-06-21T09:17:49.101Z,4.50
2018-06-21T09:18:49.087Z,5.60
2018-06-21T09:19:49.096Z,7.60
2018-06-21T09:20:49.063Z,5.80
2018-06-21T09:21:49.055Z,5.60
2018-06-21T09:22:49.046Z,6.10
2018-06-21T09:23:49.035Z,5.80
2018-06-21T09:24:49.034Z,5.70
2018-06-21T09:25:49.009Z,5.90
2018-06-21T09:26:48.999Z,5.90
2018-06-21T09:27:48.991Z,4.90
2018-06-21T09:28:48.984Z,5.20
2018-06-21T09:29:48.986Z,4.60
2018-06-21T09:30:48.952Z,4.30
2018-06-21T09:31:48.938Z,6.80
2018-06-21T09:32:48.930Z,5.30
2018-06-21T09:33:48.919Z,4.10
2018-06-21T09:34:48.941Z,3.90
2018-06-21T09:35:48.904Z,5.40
2018-06-21T09:36:48.895Z,6.10
2018-06-21T09:37:48.881Z,4.80
2018-06-21T09:38:48.866Z,5.40
2018-06-21T09:39:48.856Z,4.20
2018-06-21T09:40:48.879Z,5.30
2018-06-21T09:41:48.836Z,3.90
2018-06-21T09:42:48.822Z,4.70
2018-06-21T09:44:03.408Z,3.90
2018-06-21T09:44:49.801Z,3.90
2018-06-21T09:45:48.791Z,4.20
2018-06-21T09:46:48.800Z,4.30
2018-06-21T09:47:48.773Z,4.00
2018-06-21T09:48:48.763Z,4.60
2018-06-21T09:49:48.750Z,5.50
2018-06-21T09:50:48.737Z,4.10
2018-06-21T09:51:48.748Z,4.50
2018-06-21T09:52:48.711Z,4.10
2018-06-21T09:53:48.702Z,4.10
2018-06-21T09:54:48.693Z,5.10
2018-06-21T09:55:48.684Z,4.00
2018-06-21T09:56:48.678Z,3.70
2018-06-21T09:57:48.782Z,3.70
2018-06-21T09:58:48.649Z,5.30
2018-06-21T09:59:48.639Z,3.90
2018-06-21T10:00:48.627Z,3.70
2018-06-21T10:01:48.615Z,4.10
2018-06-21T10:02:48.619Z,3.70
2018-06-21T10:03:48.590Z,3.80
2018-06-21T10:04:48.574Z,3.90
2018-06-21T10:05:48.570Z,3.40
2018-06-21T10:06:48.561Z,3.70
2018-06-21T10:07:48.577Z,3.80
2018-06-21T10:08:48.539Z,3.80
2018-06-21T10:09:48.523Z,3.80
2018-06-21T10:10:48.508Z,4.30
2018-06-21T10:11:48.495Z,3.60
2018-06-21T10:12:48.492Z,3.90
2018-06-21T10:13:48.494Z,4.50
2018-06-21T10:14:48.509Z,3.60
2018-06-21T10:15:48.561Z,3.30
2018-06-21T10:16:48.472Z,3.80
2018-06-21T10:17:48.453Z,3.60
2018-06-21T10:18:48.492Z,4.00
2018-06-21T10:19:48.555Z,3.50
2018-06-21T10:20:48.432Z,4.30
2018-06-21T10:21:48.427Z,3.80
2018-06-21T10:22:48.410Z,3.90
2018-06-21T10:23:48.392Z,3.70
2018-06-21T10:24:48.424Z,4.30
2018-06-21T10:25:48.372Z,4.20
2018-06-21T10:26:48.328Z,3.50
2018-06-21T10:27:48.320Z,3.60
2018-06-21T10:28:48.300Z,4.30
2018-06-21T10:29:48.319Z,3.80
2018-06-21T10:30:48.285Z,3.60
2018-06-21T10:31:48.280Z,4.00
2018-06-21T10:32:48.264Z,4.10
2018-06-21T10:33:48.248Z,3.70
2018-06-21T10:34:48.235Z,4.10
2018-06-21T10:35:48.249Z,4.80
2018-06-21T10:36:48.213Z,4.20
2018-06-21T10:37:48.200Z,3.70
2018-06-21T10:38:48.193Z,5.40
2018-06-21T10:39:48.180Z,3.80
2018-06-21T10:40:48.169Z,4.20
2018-06-21T10:41:48.178Z,4.10
2018-06-21T10:42:48.140Z,4.10
2018-06-21T10:43:48.132Z,4.10
2018-06-21T10:44:48.123Z,4.50
2018-06-21T10:45:48.113Z,3.80
2018-06-21T10:46:48.113Z,3.80
2018-06-21T10:47:48.085Z,4.00
2018-06-21T10:48:48.074Z,4.10
2018-06-21T10:49:48.070Z,3.70
2018-06-21T10:50:48.060Z,3.70
2018-06-21T10:51:48.074Z,3.70
2018-06-21T10:52:48.031Z,3.70
2018-06-21T10:53:48.025Z,4.80
2018-06-21T10:54:48.004Z,4.10
2018-06-21T10:55:47.996Z,3.80
2018-06-21T10:56:47.985Z,4.00
2018-06-21T10:57:47.988Z,3.80
2018-06-21T10:58:47.965Z,3.80
2018-06-21T10:59:47.952Z,3.80
2018-06-21T11:00:47.937Z,3.80
2018-06-21T11:01:47.924Z,3.80
2018-06-21T11:02:47.947Z,3.70
2018-06-21T11:03:47.907Z,4.30
2018-06-21T11:04:47.895Z,3.80
2018-06-21T11:05:47.888Z,3.90
2018-06-21T11:06:47.872Z,3.80
2018-06-21T11:07:47.858Z,3.80
2018-06-21T11:08:47.865Z,3.80
2018-06-21T11:09:47.832Z,3.70
2018-06-21T11:10:47.831Z,3.60
2018-06-21T11:11:47.815Z,3.80
2018-06-21T11:12:47.804Z,3.60
2018-06-21T11:13:47.813Z,3.70
2018-06-21T11:14:47.792Z,4.50
2018-06-21T11:15:47.769Z,3.80
2018-06-21T11:16:47.792Z,4.00
2018-06-21T11:17:47.749Z,3.90
2018-06-21T11:18:47.762Z,3.80
2018-06-21T11:19:47.723Z,3.60
2018-06-21T11:20:47.711Z,4.50
2018-06-21T11:21:47.699Z,3.70
2018-06-21T11:22:47.698Z,3.50
2018-06-21T11:23:47.680Z,3.90
2018-06-21T11:24:47.699Z,3.70
2018-06-21T11:25:47.661Z,3.60
2018-06-21T11:26:47.643Z,4.00
2018-06-21T11:27:47.668Z,3.70
2018-06-21T11:28:47.627Z,4.00
2018-06-21T11:29:47.610Z,3.50
2018-06-21T11:30:47.634Z,3.80
2018-06-21T11:31:47.594Z,4.00
2018-06-21T11:32:47.578Z,3.70
2018-06-21T11:33:47.565Z,3.60
2018-06-21T11:34:47.559Z,3.50
2018-06-21T11:35:47.547Z,3.70
2018-06-21T11:36:47.556Z,3.70
2018-06-21T11:37:47.526Z,3.80
2018-06-21T11:38:47.508Z,3.80
2018-06-21T11:39:47.499Z,3.60
2018-06-21T11:40:47.487Z,3.90
2018-06-21T11:41:47.493Z,3.60
2018-06-21T11:42:47.468Z,4.00
2018-06-21T11:43:47.454Z,3.60
2018-06-21T11:44:47.443Z,3.60
2018-06-21T11:45:47.452Z,3.80
2018-06-21T11:46:47.529Z,3.50
2018-06-21T11:47:47.408Z,3.60
2018-06-21T11:48:47.398Z,3.50
2018-06-21T11:49:47.389Z,3.60
2018-06-21T11:50:47.394Z,3.40
2018-06-21T11:51:47.388Z,3.60
2018-06-21T11:52:47.349Z,3.60
2018-06-21T11:53:47.337Z,3.50
2018-06-21T11:54:47.333Z,3.70
2018-06-21T11:55:47.323Z,3.50
2018-06-21T11:56:47.307Z,3.60
2018-06-21T11:57:47.316Z,3.50
2018-06-21T11:58:47.909Z,3.50
2018-06-21T11:59:47.270Z,3.60
2018-06-21T12:00:47.262Z,3.70
2018-06-21T12:01:47.262Z,3.70
2018-06-21T12:02:47.262Z,3.50
2018-06-21T12:03:47.228Z,3.50
2018-06-21T12:04:47.214Z,3.50
2018-06-21T12:05:47.203Z,3.50
2018-06-21T12:06:47.196Z,3.80
2018-06-21T12:07:47.214Z,3.60
2018-06-21T12:08:47.216Z,3.90
2018-06-21T12:09:47.160Z,3.10
2018-06-21T12:10:47.143Z,3.40
2018-06-21T12:11:47.133Z,3.60
2018-06-21T12:12:47.126Z,3.80
2018-06-21T12:13:47.138Z,4.10
2018-06-21T12:14:47.104Z,3.50
2018-06-21T12:15:47.090Z,3.40
2018-06-21T12:16:47.080Z,3.60
2018-06-21T12:17:47.102Z,3.50
2018-06-21T12:18:47.053Z,3.50
2018-06-21T12:19:47.047Z,3.60
2018-06-21T12:20:47.051Z,3.80
2018-06-21T12:21:47.025Z,3.60
2018-06-21T12:22:47.008Z,3.60
2018-06-21T12:23:47.021Z,3.60
2018-06-21T12:24:46.986Z,3.50
2018-06-21T12:25:46.974Z,3.50
2018-06-21T12:26:46.970Z,3.40
2018-06-21T12:27:46.956Z,3.50
2018-06-21T12:28:46.962Z,3.60
2018-06-21T12:29:46.936Z,3.50
2018-06-21T12:30:46.919Z,3.50
2018-06-21T12:31:46.906Z,3.50
2018-06-21T12:32:46.897Z,3.20
2018-06-21T12:33:46.906Z,3.50
2018-06-21T12:34:46.885Z,3.20
2018-06-21T12:35:46.863Z,3.40
2018-06-21T12:36:46.850Z,3.60
2018-06-21T12:37:46.836Z,3.60
2018-06-21T12:38:46.850Z,3.70
2018-06-21T12:39:46.819Z,3.50
2018-06-21T12:40:46.808Z,3.50
2018-06-21T12:41:46.798Z,3.40
2018-06-21T12:42:46.781Z,3.40
2018-06-21T12:43:46.793Z,3.70
2018-06-21T12:44:46.760Z,3.60
2018-06-21T12:45:46.749Z,3.30
2018-06-21T12:46:46.743Z,3.10
2018-06-21T12:47:46.731Z,3.40
2018-06-21T12:48:46.738Z,3.50
2018-06-21T12:49:46.712Z,3.60
2018-06-21T12:50:46.691Z,3.60
2018-06-21T12:51:46.683Z,3.50
2018-06-21T12:52:46.672Z,3.30
2018-06-21T12:53:46.691Z,3.60
2018-06-21T12:54:46.645Z,3.50
2018-06-21T12:55:46.637Z,3.30
2018-06-21T12:56:46.624Z,3.50
2018-06-21T12:57:46.610Z,3.40
2018-06-21T12:58:46.609Z,3.30
2018-06-21T12:59:46.611Z,3.50
2018-06-21T13:00:46.581Z,3.10
2018-06-21T13:01:46.573Z,3.30
2018-06-21T13:02:46.555Z,3.50
2018-06-21T13:03:46.546Z,3.40
2018-06-21T13:04:46.563Z,3.10
2018-06-21T13:05:46.526Z,4.30
2018-06-21T13:06:46.517Z,3.50
2018-06-21T13:07:46.503Z,3.30
2018-06-21T13:08:46.489Z,3.60
2018-06-21T13:09:46.481Z,3.70
2018-06-21T13:10:46.491Z,3.70
2018-06-21T13:11:46.459Z,3.30
2018-06-21T13:12:46.447Z,3.40
2018-06-21T13:13:46.440Z,3.20
2018-06-21T13:14:46.422Z,3.30
2018-06-21T13:15:46.429Z,3.30
2018-06-21T13:16:46.399Z,3.30
2018-06-21T13:17:46.385Z,3.20
2018-06-21T13:18:46.380Z,3.60